Time;durP1;ratioP1;P1;durP2;ratioP2;P2;SDS_P1;SDS_P2;PMS_P1;PMS_P2;Temp;Humidity;BMP_temperature;BMP_pressure;BME280_temperature;BME280_humidity;BME280_pressure;Samples;Min_cycle;Max_cycle;Signal;HPM_P1;HPM_P2
2022/04/16 00:00:27;;;;;;;30.70;18.17;;;5.70;99.90;;;;;;5085649;28;20062;-74
2022/04/16 00:02:56;;;;;;;26.35;16.30;;;5.60;99.90;;;;;;5085706;28;20051;-74
2022/04/16 00:05:25;;;;;;;29.45;15.88;;;5.60;99.90;;;;;;5067858;28;20052;-74
2022/04/16 00:08:06;;;;;;;27.48;16.38;;;5.60;99.90;;;;;;5100216;28;20105;-74
2022/04/16 00:10:37;;;;;;;32.30;16.67;;;5.60;99.90;;;;;;5101735;28;20055;-74
2022/04/16 00:13:04;;;;;;;25.00;16.63;;;5.50;99.90;;;;;;5086703;28;20036;-74
2022/04/16 00:15:30;;;;;;;26.23;16.75;;;5.50;99.90;;;;;;5085978;28;20495;-74
2022/04/16 00:17:56;;;;;;;26.95;17.15;;;5.50;99.90;;;;;;5086941;28;20119;-74
2022/04/16 00:20:26;;;;;;;24.15;15.75;;;5.50;99.90;;;;;;5076135;28;20267;-74
2022/04/16 00:22:53;;;;;;;23.63;16.77;;;5.40;99.90;;;;;;5087458;28;20390;-74
2022/04/16 00:25:19;;;;;;;30.00;17.02;;;5.40;99.90;;;;;;5084727;28;20097;-74
2022/04/16 00:27:48;;;;;;;25.02;16.50;;;5.40;99.90;;;;;;5079659;28;20036;-74
2022/04/16 00:30:15;;;;;;;24.30;15.75;;;5.40;99.90;;;;;;5080944;28;20028;-74
2022/04/16 00:32:40;;;;;;;25.77;16.55;;;5.30;99.90;;;;;;5069624;28;20079;-74
2022/04/16 00:35:10;;;;;;;28.42;16.70;;;5.30;99.90;;;;;;5076049;28;20071;-74
2022/04/16 00:37:36;;;;;;;23.33;15.98;;;5.30;99.90;;;;;;5086243;28;20501;-73
2022/04/16 00:40:03;;;;;;;24.35;15.88;;;5.20;99.90;;;;;;5073964;28;20071;-74
2022/04/16 00:42:40;;;;;;;24.90;17.23;;;5.20;99.90;;;;;;5081451;28;20509;-74
2022/04/16 00:45:07;;;;;;;32.40;17.92;;;5.20;99.90;;;;;;5094829;28;20032;-74
2022/04/16 00:47:33;;;;;;;29.48;18.27;;;5.20;99.90;;;;;;5078466;28;20550;-74
2022/04/16 00:49:59;;;;;;;32.42;19.02;;;5.20;99.90;;;;;;5060262;28;20266;-74
2022/04/16 00:52:25;;;;;;;30.75;18.13;;;5.20;99.90;;;;;;5049663;28;20043;-74
2022/04/16 00:54:54;;;;;;;32.58;19.42;;;5.10;99.90;;;;;;5064266;28;20036;-74
2022/04/16 00:57:20;;;;;;;33.53;20.35;;;5.10;99.90;;;;;;5067043;28;20101;-74
2022/04/16 00:59:46;;;;;;;32.60;20.23;;;5.10;99.90;;;;;;5068125;28;20048;-74
2022/04/16 01:02:12;;;;;;;26.70;18.00;;;5.00;99.90;;;;;;5067705;28;20046;-74
2022/04/16 01:04:38;;;;;;;25.35;16.33;;;5.00;99.90;;;;;;5085405;28;20498;-73
2022/04/16 01:07:06;;;;;;;29.15;18.10;;;5.00;99.90;;;;;;5067963;28;20082;-74
2022/04/16 01:09:33;;;;;;;30.25;18.90;;;4.90;99.90;;;;;;5085921;28;20396;-74
2022/04/16 01:12:00;;;;;;;26.45;17.58;;;4.90;99.90;;;;;;5085089;28;20040;-74
2022/04/16 01:14:26;;;;;;;32.15;20.17;;;4.90;99.90;;;;;;5069159;28;20067;-74
2022/04/16 01:16:56;;;;;;;29.58;17.50;;;4.80;99.90;;;;;;5084485;28;20040;-74
2022/04/16 01:19:22;;;;;;;31.25;18.85;;;4.80;99.90;;;;;;5085295;28;20527;-74
2022/04/16 01:21:48;;;;;;;26.17;17.20;;;4.80;99.90;;;;;;5068061;28;20042;-74
2022/04/16 01:24:14;;;;;;;30.63;18.38;;;4.80;99.90;;;;;;5084867;28;20123;-74
2022/04/16 01:26:43;;;;;;;26.90;19.48;;;4.80;99.90;;;;;;5097566;28;20110;-73
2022/04/16 01:29:13;;;;;;;30.85;19.40;;;4.70;99.90;;;;;;5076452;28;20520;-73
2022/04/16 01:31:39;;;;;;;28.50;20.23;;;4.80;99.90;;;;;;5065065;28;20040;-73
2022/04/16 01:34:04;;;;;;;28.98;18.65;;;4.80;99.90;;;;;;5099205;28;20038;-74
2022/04/16 01:36:31;;;;;;;31.75;18.92;;;4.70;99.90;;;;;;5079851;28;20040;-74
2022/04/16 01:38:58;;;;;;;30.15;18.83;;;4.70;99.90;;;;;;5085254;28;20513;-74
2022/04/16 01:41:25;;;;;;;28.58;18.13;;;4.70;99.90;;;;;;5066765;28;20043;-74
2022/04/16 01:43:51;;;;;;;30.80;20.05;;;4.70;99.90;;;;;;5062266;28;20117;-74
2022/04/16 01:46:17;;;;;;;29.60;18.60;;;4.70;99.90;;;;;;5066546;28;20046;-74
2022/04/16 01:48:43;;;;;;;31.77;19.98;;;4.70;99.90;;;;;;5064956;28;20496;-74
2022/04/16 01:51:09;;;;;;;32.65;19.75;;;4.80;99.90;;;;;;5050986;28;20028;-74
2022/04/16 01:53:35;;;;;;;31.80;17.80;;;4.80;99.90;;;;;;5074502;28;20036;-74
2022/04/16 01:56:01;;;;;;;27.73;18.55;;;4.80;99.90;;;;;;5043346;28;20033;-74
2022/04/16 01:58:27;;;;;;;25.75;17.15;;;4.80;99.90;;;;;;5079970;28;20048;-74
2022/04/16 02:00:53;;;;;;;28.38;18.95;;;4.90;99.90;;;;;;5063372;28;20032;-74
2022/04/16 02:03:19;;;;;;;33.67;20.73;;;4.90;99.90;;;;;;5064057;28;20044;-74
2022/04/16 02:05:45;;;;;;;35.53;21.70;;;4.90;99.90;;;;;;5066785;28;20485;-74
2022/04/16 02:08:11;;;;;;;33.88;20.40;;;5.00;99.90;;;;;;5098725;28;20040;-74
2022/04/16 02:10:37;;;;;;;29.98;20.17;;;5.00;99.90;;;;;;5082173;28;20050;-74
2022/04/16 02:13:03;;;;;;;38.45;21.35;;;4.90;99.90;;;;;;5084430;28;20032;-74
2022/04/16 02:15:29;;;;;;;33.10;18.95;;;5.00;99.90;;;;;;5063363;28;20036;-74
2022/04/16 02:17:55;;;;;;;33.65;20.92;;;4.80;99.90;;;;;;5068159;28;20055;-74
2022/04/16 02:20:22;;;;;;;32.03;19.75;;;4.80;99.90;;;;;;5074425;28;20063;-74
2022/04/16 02:22:48;;;;;;;31.45;18.95;;;4.80;99.90;;;;;;5067670;28;20047;-74
2022/04/16 02:25:17;;;;;;;32.53;18.90;;;4.70;99.90;;;;;;5083894;28;20547;-74
2022/04/16 02:27:43;;;;;;;28.08;17.70;;;4.70;99.90;;;;;;5085738;28;20605;-74
2022/04/16 02:30:14;;;;;;;32.55;19.55;;;4.60;99.90;;;;;;5096469;28;20075;-74
2022/04/16 02:32:43;;;;;;;34.63;21.45;;;4.60;99.90;;;;;;5082495;28;20493;-74
2022/04/16 02:35:10;;;;;;;35.83;20.38;;;4.60;99.90;;;;;;5075961;28;20098;-74
2022/04/16 02:37:36;;;;;;;35.53;20.15;;;4.50;99.90;;;;;;5083609;28;20036;-74
2022/04/16 02:40:04;;;;;;;33.45;20.45;;;4.50;99.90;;;;;;5066877;28;20143;-74
2022/04/16 02:42:33;;;;;;;32.63;20.52;;;4.50;99.90;;;;;;5083802;28;20032;-74
2022/04/16 02:47:43;;;;;;;48.83;25.25;;;4.50;99.90;;;;;;5084320;28;20040;-74
2022/04/16 02:50:09;;;;;;;48.28;27.05;;;4.50;99.90;;;;;;5065796;28;20058;-74
2022/04/16 02:52:36;;;;;;;47.67;26.58;;;4.60;99.90;;;;;;5055580;28;20036;-74
2022/04/16 02:55:05;;;;;;;43.25;25.83;;;4.60;99.90;;;;;;5098856;28;20048;-74
2022/04/16 02:57:32;;;;;;;42.17;25.85;;;4.60;99.90;;;;;;5063250;28;20048;-74
2022/04/16 02:59:57;;;;;;;48.15;27.10;;;4.60;99.90;;;;;;5095296;28;20327;-74
2022/04/16 03:02:23;;;;;;;50.78;28.75;;;4.70;99.90;;;;;;5079743;28;20485;-74
2022/04/16 03:04:50;;;;;;;56.25;29.58;;;4.80;99.90;;;;;;5078344;28;20040;-74
2022/04/16 03:07:19;;;;;;;50.58;28.55;;;4.90;99.90;;;;;;5047051;28;20051;-74
2022/04/16 03:09:45;;;;;;;60.60;30.85;;;5.00;99.90;;;;;;5080085;28;20132;-74
2022/04/16 03:12:11;;;;;;;57.60;29.73;;;5.20;99.90;;;;;;5083133;28;20104;-74
2022/04/16 03:17:34;;;;;;;56.95;30.75;;;5.70;99.90;;;;;;5084125;28;20059;-74
2022/04/16 03:20:04;;;;;;;60.90;31.13;;;5.90;99.90;;;;;;5082150;28;20089;-73
2022/04/16 03:22:31;;;;;;;58.88;30.02;;;6.10;99.90;;;;;;5081953;28;20468;-74
2022/04/16 03:24:58;;;;;;;62.38;30.48;;;6.10;99.90;;;;;;5097851;28;20048;-74
2022/04/16 03:27:24;;;;;;;54.95;28.45;;;6.20;99.90;;;;;;5098733;28;20048;-74
2022/04/16 03:29:50;;;;;;;55.13;28.90;;;6.20;99.90;;;;;;5083888;28;20515;-74
2022/04/16 03:32:16;;;;;;;46.80;26.35;;;6.30;99.90;;;;;;5081550;28;20043;-74
2022/04/16 03:34:41;;;;;;;40.17;24.65;;;6.40;99.90;;;;;;5076878;28;20188;-74
2022/04/16 03:37:07;;;;;;;38.10;24.30;;;6.40;99.90;;;;;;5081660;28;20086;-74
2022/04/16 03:39:33;;;;;;;35.03;22.48;;;6.40;99.90;;;;;;5097981;28;20177;-74
2022/04/16 03:41:58;;;;;;;33.03;21.02;;;6.40;99.90;;;;;;5048578;28;20042;-73
2022/04/16 03:44:24;;;;;;;35.45;21.25;;;6.50;99.90;;;;;;5099315;28;20079;-74
2022/04/16 03:46:49;;;;;;;31.85;19.80;;;6.50;99.90;;;;;;5065117;28;20287;-74
2022/04/16 03:49:15;;;;;;;36.47;21.60;;;6.50;99.90;;;;;;5057795;28;20075;-74
2022/04/16 03:51:41;;;;;;;32.35;18.73;;;6.60;99.90;;;;;;5048266;28;20036;-73
2022/04/16 04:02:19;;;;;;;37.17;19.65;;;6.60;99.90;;;;;;5064325;28;20045;-74
2022/04/16 04:04:46;;;;;;;32.95;18.60;;;6.60;99.90;;;;;;5079411;28;20036;-73
2022/04/16 04:07:12;;;;;;;32.03;19.33;;;6.70;99.90;;;;;;5060820;28;20043;-74
2022/04/16 04:09:39;;;;;;;33.97;19.38;;;6.70;99.90;;;;;;5067325;28;20037;-73
2022/04/16 04:12:13;;;;;;;30.88;19.52;;;6.70;99.90;;;;;;5056786;28;20492;-74
2022/04/16 04:14:39;;;;;;;31.27;18.98;;;6.70;99.90;;;;;;5080952;28;20039;-74
2022/04/16 04:17:07;;;;;;;33.70;20.98;;;6.70;99.90;;;;;;5081295;28;20443;-73
2022/04/16 04:19:39;;;;;;;29.42;18.27;;;6.70;99.90;;;;;;5065596;28;20097;-74
2022/04/16 04:22:06;;;;;;;34.95;19.75;;;6.70;99.90;;;;;;5093563;28;20056;-74
2022/04/16 04:24:32;;;;;;;31.08;18.65;;;6.80;99.90;;;;;;5076916;28;20497;-73
2022/04/16 04:27:02;;;;;;;27.00;16.98;;;6.80;99.90;;;;;;5082946;28;20109;-73
2022/04/16 04:29:28;;;;;;;27.27;17.00;;;6.80;99.90;;;;;;5053874;28;20429;-73
2022/04/16 04:31:55;;;;;;;30.92;17.88;;;6.80;99.90;;;;;;5083657;28;20039;-73
2022/04/16 04:34:21;;;;;;;30.33;18.50;;;6.90;99.90;;;;;;5077820;28;20522;-74
2022/04/16 04:36:47;;;;;;;32.15;17.92;;;6.80;99.90;;;;;;5081863;28;20032;-74
2022/04/16 04:39:13;;;;;;;28.33;17.75;;;6.80;99.90;;;;;;5069393;28;20497;-74
2022/04/16 04:41:39;;;;;;;26.20;16.98;;;6.80;99.90;;;;;;5100163;28;20032;-74
2022/04/16 04:44:05;;;;;;;25.73;16.63;;;6.80;99.90;;;;;;5062885;28;20467;-73
2022/04/16 04:46:31;;;;;;;30.10;17.25;;;6.80;99.90;;;;;;5068893;28;20162;-74
2022/04/16 04:48:57;;;;;;;29.50;16.80;;;6.90;99.90;;;;;;5084441;28;20549;-74
2022/04/16 04:51:23;;;;;;;25.60;15.95;;;6.90;99.90;;;;;;5086066;28;20066;-74
2022/04/16 04:53:48;;;;;;;29.38;17.05;;;6.90;99.90;;;;;;5083833;28;20481;-74
2022/04/16 04:56:14;;;;;;;28.45;16.77;;;6.90;99.90;;;;;;5098206;28;20054;-74
2022/04/16 04:58:40;;;;;;;28.33;16.52;;;6.90;99.90;;;;;;5068112;28;20047;-74
2022/04/16 05:01:05;;;;;;;31.00;16.92;;;6.90;99.90;;;;;;5069010;28;20072;-74
2022/04/16 05:03:31;;;;;;;28.00;16.38;;;6.90;99.90;;;;;;5076110;28;20032;-73
2022/04/16 05:05:57;;;;;;;25.13;15.63;;;6.90;99.90;;;;;;5074667;28;20085;-74
2022/04/16 05:08:23;;;;;;;26.30;17.08;;;6.90;99.90;;;;;;5102217;28;20040;-74
2022/04/16 05:10:48;;;;;;;31.60;17.35;;;6.90;99.90;;;;;;5084898;28;20110;-74
2022/04/16 05:13:14;;;;;;;27.00;16.42;;;6.90;99.90;;;;;;5052000;28;20123;-74
2022/04/16 05:15:40;;;;;;;27.70;16.90;;;6.90;99.90;;;;;;5084390;28;20036;-74
2022/04/16 05:18:05;;;;;;;23.55;15.60;;;6.90;99.90;;;;;;5059078;28;20131;-74
2022/04/16 05:20:31;;;;;;;24.88;15.70;;;7.00;99.90;;;;;;5066575;28;20493;-74
2022/04/16 05:22:57;;;;;;;33.35;18.40;;;6.90;99.90;;;;;;5052047;28;20497;-74
2022/04/16 05:25:23;;;;;;;27.42;17.55;;;7.00;99.90;;;;;;5102275;28;20032;-74
2022/04/16 05:27:48;;;;;;;29.73;17.38;;;7.00;99.90;;;;;;5074959;28;20036;-74
2022/04/16 05:30:22;;;;;;;29.25;16.58;;;7.00;99.90;;;;;;5101449;28;20048;-74
2022/04/16 05:32:49;;;;;;;29.75;17.25;;;7.00;99.90;;;;;;5070254;28;20565;-74
2022/04/16 05:35:15;;;;;;;28.55;16.92;;;7.10;99.90;;;;;;5086070;28;20046;-74
2022/04/16 05:37:42;;;;;;;30.58;16.77;;;7.10;99.90;;;;;;5085512;28;20036;-74
2022/04/16 05:40:10;;;;;;;28.15;17.40;;;7.10;99.90;;;;;;5084543;28;20043;-74
2022/04/16 05:42:40;;;;;;;27.38;17.67;;;7.10;99.90;;;;;;5078156;28;20123;-74
2022/04/16 05:45:07;;;;;;;26.65;15.75;;;7.10;99.90;;;;;;5067561;28;20047;-74
2022/04/16 05:47:33;;;;;;;24.80;15.10;;;7.20;99.90;;;;;;5081380;28;20115;-74
2022/04/16 05:49:58;;;;;;;22.77;14.98;;;7.20;99.90;;;;;;5066388;28;20119;-74
2022/04/16 05:52:24;;;;;;;20.65;14.07;;;7.20;99.90;;;;;;5068587;28;20040;-74
2022/04/16 05:54:52;;;;;;;25.52;13.93;;;7.20;99.90;;;;;;5067920;28;20044;-74
2022/04/16 05:57:25;;;;;;;22.55;13.65;;;7.20;99.90;;;;;;5085348;28;20048;-74
2022/04/16 05:59:51;;;;;;;23.08;14.77;;;7.20;99.90;;;;;;5084100;28;20520;-74
2022/04/16 06:02:17;;;;;;;23.83;12.88;;;7.20;99.90;;;;;;5068036;28;20039;-74
2022/04/16 06:04:45;;;;;;;20.88;13.05;;;7.20;99.90;;;;;;5084128;28;20036;-73
2022/04/16 06:07:11;;;;;;;20.70;13.32;;;7.20;99.90;;;;;;5084261;28;20032;-74
2022/04/16 06:09:37;;;;;;;20.05;12.00;;;7.30;99.90;;;;;;5069174;28;20167;-74
2022/04/16 06:12:04;;;;;;;21.55;13.15;;;7.30;99.90;;;;;;5082472;28;20385;-74
2022/04/16 06:14:33;;;;;;;21.88;13.25;;;7.40;99.90;;;;;;5066108;28;20133;-74
2022/04/16 06:16:59;;;;;;;20.50;12.05;;;7.50;99.90;;;;;;5076352;28;20055;-74
2022/04/16 06:19:24;;;;;;;22.25;12.02;;;7.70;99.90;;;;;;5067785;28;20049;-74
2022/04/16 06:21:51;;;;;;;19.48;11.68;;;7.80;99.90;;;;;;5065717;28;20079;-74
2022/04/16 06:24:16;;;;;;;17.20;11.52;;;7.80;99.90;;;;;;5068682;28;20197;-74
2022/04/16 06:26:45;;;;;;;17.63;10.98;;;7.80;99.90;;;;;;5084318;28;20537;-74
2022/04/16 06:29:11;;;;;;;18.17;11.32;;;7.70;99.90;;;;;;5087175;28;20494;-74
2022/04/16 06:31:37;;;;;;;25.30;11.90;;;7.70;99.90;;;;;;5082350;28;20036;-74
2022/04/16 06:34:03;;;;;;;19.80;11.88;;;7.60;99.90;;;;;;5084141;28;20413;-74
2022/04/16 06:36:29;;;;;;;19.17;11.85;;;7.60;99.90;;;;;;5077619;28;20028;-74
2022/04/16 06:38:54;;;;;;;16.38;11.13;;;7.60;99.90;;;;;;5099769;28;20382;-74
2022/04/16 06:41:20;;;;;;;14.10;10.30;;;7.60;99.90;;;;;;5060377;28;20568;-74
2022/04/16 06:43:46;;;;;;;20.13;11.02;;;7.60;99.90;;;;;;5083671;28;20048;-74
2022/04/16 06:46:12;;;;;;;17.52;10.43;;;7.60;99.90;;;;;;5097489;28;20059;-74
2022/04/16 06:48:38;;;;;;;16.33;10.13;;;7.70;99.90;;;;;;5059052;28;20541;-74
2022/04/16 06:51:05;;;;;;;15.75;9.73;;;7.70;99.90;;;;;;5099415;28;20044;-74
2022/04/16 06:53:30;;;;;;;13.98;9.40;;;7.70;99.90;;;;;;5083349;28;20058;-74
2022/04/16 06:56:00;;;;;;;14.35;9.15;;;7.70;99.90;;;;;;5084202;28;20032;-74
2022/04/16 06:58:28;;;;;;;14.75;8.63;;;7.70;99.90;;;;;;5081705;28;20493;-74
2022/04/16 07:00:54;;;;;;;13.40;8.10;;;7.80;99.90;;;;;;5081014;28;20041;-74
2022/04/16 07:03:20;;;;;;;13.38;8.57;;;7.80;99.90;;;;;;5066550;28;20061;-74
2022/04/16 07:05:46;;;;;;;14.13;8.48;;;7.80;99.90;;;;;;5082955;28;20119;-74
2022/04/16 07:08:12;;;;;;;20.65;8.43;;;7.80;99.90;;;;;;5086255;28;20517;-74
2022/04/16 07:10:39;;;;;;;15.82;9.35;;;7.90;99.90;;;;;;5083610;28;20048;-73
2022/04/16 07:13:05;;;;;;;15.05;8.10;;;8.00;99.90;;;;;;5060585;28;20142;-74
2022/04/16 07:15:31;;;;;;;12.00;7.68;;;8.10;99.90;;;;;;5082556;28;20032;-74
2022/04/16 07:17:57;;;;;;;12.43;6.85;;;8.30;99.90;;;;;;5082097;28;20043;-74
2022/04/16 07:20:23;;;;;;;8.68;5.85;;;8.30;99.90;;;;;;5048205;28;21496;-74
2022/04/16 07:22:49;;;;;;;9.80;5.78;;;8.70;99.90;;;;;;5065600;28;20052;-74
2022/04/16 07:25:14;;;;;;;19.85;6.75;;;9.60;99.90;;;;;;5050321;28;20063;-74
2022/04/16 07:27:42;;;;;;;8.73;5.18;;;10.50;99.90;;;;;;5066525;28;20032;-74
2022/04/16 07:30:08;;;;;;;9.48;4.55;;;11.40;99.90;;;;;;5082759;28;20553;-74
2022/04/16 07:32:33;;;;;;;7.20;4.80;;;11.80;99.90;;;;;;5081836;28;20062;-74
2022/04/16 07:34:59;;;;;;;7.45;4.53;;;12.40;99.90;;;;;;5064300;28;20397;-75
2022/04/16 07:37:25;;;;;;;7.43;4.38;;;12.90;99.90;;;;;;5064426;28;20115;-74
2022/04/16 07:39:50;;;;;;;7.55;4.32;;;13.30;99.90;;;;;;5081174;28;20121;-74
2022/04/16 07:42:16;;;;;;;8.90;4.47;;;13.40;99.80;;;;;;5066359;28;20777;-75
2022/04/16 07:44:42;;;;;;;6.32;3.80;;;13.40;98.80;;;;;;5049669;28;20515;-74
2022/04/16 07:47:08;;;;;;;4.97;3.63;;;13.50;96.40;;;;;;5065797;28;20118;-74
2022/04/16 07:49:34;;;;;;;7.80;3.90;;;13.40;95.90;;;;;;5080833;28;20044;-74
2022/04/16 07:52:00;;;;;;;9.38;3.40;;;13.40;95.40;;;;;;5087436;28;20036;-75
2022/04/16 07:54:26;;;;;;;5.88;3.38;;;13.80;95.80;;;;;;5072015;28;20051;-74
2022/04/16 07:56:51;;;;;;;6.25;3.30;;;14.20;95.40;;;;;;5088270;28;20524;-74
2022/04/16 07:59:17;;;;;;;4.50;3.45;;;14.40;95.00;;;;;;5057479;28;20067;-74
2022/04/16 08:01:43;;;;;;;6.22;3.53;;;14.80;94.40;;;;;;5061661;28;20036;-74
2022/04/16 08:04:09;;;;;;;4.88;3.08;;;15.10;93.80;;;;;;5092445;28;20063;-74
2022/04/16 08:06:34;;;;;;;8.07;3.78;;;14.70;91.70;;;;;;5077803;28;20111;-74
2022/04/16 08:09:03;;;;;;;7.57;3.20;;;15.00;91.80;;;;;;5075722;28;20044;-74
2022/04/16 08:11:33;;;;;;;4.78;3.65;;;15.00;91.40;;;;;;5078186;28;20071;-74
2022/04/16 08:13:59;;;;;;;5.00;3.63;;;15.30;90.40;;;;;;5092605;28;20032;-74
2022/04/16 08:16:25;;;;;;;4.30;3.40;;;15.40;90.50;;;;;;5092214;28;20048;-74
2022/04/16 08:18:51;;;;;;;4.65;3.13;;;15.20;88.90;;;;;;5085889;28;20563;-74
2022/04/16 08:21:17;;;;;;;5.07;3.03;;;15.40;88.80;;;;;;5067959;28;20447;-74
2022/04/16 08:23:55;;;;;;;6.78;3.50;;;15.10;85.50;;;;;;5077587;28;20519;-74
2022/04/16 08:26:24;;;;;;;8.50;2.90;;;15.40;88.20;;;;;;5092171;28;20039;-74
2022/04/16 08:28:50;;;;;;;4.32;3.10;;;15.20;84.50;;;;;;5092075;28;20040;-74
2022/04/16 08:31:16;;;;;;;6.00;3.20;;;15.50;86.30;;;;;;5074778;28;20043;-74
2022/04/16 08:33:42;;;;;;;6.55;3.50;;;15.40;85.20;;;;;;5072125;28;20038;-74
2022/04/16 08:36:08;;;;;;;6.93;3.20;;;15.80;82.40;;;;;;5086329;28;20401;-74
2022/04/16 08:38:34;;;;;;;7.32;3.20;;;15.60;79.20;;;;;;5093359;28;20070;-74
2022/04/16 08:41:04;;;;;;;4.13;2.67;;;15.80;83.30;;;;;;5091443;28;20055;-74
2022/04/16 08:43:30;;;;;;;6.05;3.40;;;15.90;81.60;;;;;;5091929;28;20501;-74
2022/04/16 08:45:56;;;;;;;4.15;2.75;;;15.90;83.00;;;;;;5074960;28;20028;-74
2022/04/16 08:48:23;;;;;;;6.35;2.78;;;16.30;80.20;;;;;;5077183;28;20040;-74
2022/04/16 08:50:49;;;;;;;4.90;2.65;;;16.30;80.30;;;;;;5091777;28;20048;-74
2022/04/16 08:53:15;;;;;;;5.30;2.60;;;16.30;78.20;;;;;;5077102;28;20085;-74
2022/04/16 08:55:41;;;;;;;3.25;2.20;;;16.20;76.20;;;;;;5091387;28;20051;-74
2022/04/16 08:58:07;;;;;;;2.53;2.08;;;16.20;73.80;;;;;;5091599;28;20040;-74
2022/04/16 09:00:33;;;;;;;3.55;2.40;;;16.20;71.60;;;;;;5091478;28;20048;-74
2022/04/16 09:03:03;;;;;;;4.63;2.25;;;16.30;73.20;;;;;;5073987;28;20042;-74
2022/04/16 09:05:29;;;;;;;4.07;2.40;;;16.40;72.40;;;;;;5091707;28;20040;-74
2022/04/16 09:07:57;;;;;;;3.58;2.13;;;16.30;72.60;;;;;;5074394;28;20095;-74
2022/04/16 09:10:29;;;;;;;5.78;2.20;;;16.10;70.50;;;;;;5067068;28;20040;-73
2022/04/16 09:12:57;;;;;;;7.63;2.63;;;16.20;69.20;;;;;;5068178;28;20071;-74
2022/04/16 09:15:24;;;;;;;5.88;2.22;;;16.10;69.90;;;;;;5060040;28;20044;-74
2022/04/16 09:18:07;;;;;;;9.27;2.28;;;16.10;70.30;;;;;;5091000;28;20538;-74
2022/04/16 09:20:40;;;;;;;4.80;1.75;;;16.40;66.00;;;;;;5060848;28;20070;-74
2022/04/16 09:23:16;;;;;;;12.38;2.13;;;16.20;64.30;;;;;;5067100;28;20056;-74
2022/04/16 09:25:43;;;;;;;4.95;1.95;;;16.00;62.80;;;;;;5061045;28;20166;-74
2022/04/16 09:28:09;;;;;;;2.33;1.48;;;16.50;65.60;;;;;;5057288;28;20036;-74
2022/04/16 09:30:37;;;;;;;13.43;2.25;;;16.50;65.00;;;;;;5090677;28;20121;-73
2022/04/16 09:33:02;;;;;;;2.47;1.20;;;16.10;61.50;;;;;;5090410;28;20035;-74
2022/04/16 09:35:35;;;;;;;1.90;1.60;;;16.00;61.50;;;;;;5090974;28;20051;-74
2022/04/16 09:38:08;;;;;;;3.25;1.20;;;16.20;62.80;;;;;;5073903;28;20055;-74
2022/04/16 09:40:36;;;;;;;2.40;1.50;;;16.20;62.50;;;;;;5065012;28;20035;-74
2022/04/16 09:43:06;;;;;;;2.03;1.33;;;16.10;62.60;;;;;;5061663;28;20042;-74
2022/04/16 09:45:33;;;;;;;33.53;3.05;;;16.20;61.60;;;;;;5078789;28;20121;-73
2022/04/16 09:48:00;;;;;;;24.15;3.10;;;16.10;61.30;;;;;;5090423;28;20071;-74
2022/04/16 09:50:32;;;;;;;11.05;1.77;;;16.20;60.60;;;;;;5073754;28;20374;-74
2022/04/16 09:53:02;;;;;;;3.45;1.10;;;16.30;60.30;;;;;;5074601;28;20550;-73
2022/04/16 09:55:29;;;;;;;2.15;1.30;;;16.40;61.80;;;;;;5073450;28;20048;-74
2022/04/16 09:57:55;;;;;;;21.38;2.92;;;16.80;62.30;;;;;;5059125;28;20032;-73
2022/04/16 10:00:21;;;;;;;1.70;1.60;;;16.80;62.80;;;;;;5082282;28;20036;-74
2022/04/16 10:02:48;;;;;;;2.72;1.38;;;16.70;61.40;;;;;;5083948;28;20036;-74
2022/04/16 10:05:14;;;;;;;30.85;3.10;;;17.10;61.70;;;;;;5090723;28;20028;-74
2022/04/16 10:07:43;;;;;;;2.42;1.35;;;16.80;60.20;;;;;;5089842;28;20413;-74
2022/04/16 10:10:17;;;;;;;4.80;1.30;;;16.50;58.50;;;;;;5072752;28;20031;-74
2022/04/16 10:13:05;;;;;;;6.55;2.13;;;16.60;59.40;;;;;;5072951;28;20401;-73
2022/04/16 10:15:48;;;;;;;3.08;1.40;;;16.40;57.70;;;;;;5087656;28;20059;-73
2022/04/16 10:18:14;;;;;;;2.63;1.10;;;16.40;55.30;;;;;;5090580;28;20251;-73
2022/04/16 10:20:57;;;;;;;2.58;1.10;;;16.60;56.90;;;;;;5084003;28;20051;-73
2022/04/16 10:23:30;;;;;;;6.55;1.75;;;16.50;56.50;;;;;;5066189;28;20091;-73
2022/04/16 10:26:10;;;;;;;1.65;1.30;;;16.00;57.50;;;;;;5089764;28;20040;-73
2022/04/16 10:28:58;;;;;;;14.60;1.98;;;15.60;56.50;;;;;;5086184;28;20545;-73
2022/04/16 10:31:30;;;;;;;3.22;1.38;;;15.20;59.30;;;;;;5063594;28;20400;-73
2022/04/16 10:34:05;;;;;;;3.17;1.50;;;15.30;59.80;;;;;;5084878;28;20044;-72
2022/04/16 10:36:43;;;;;;;8.82;2.13;;;15.20;59.50;;;;;;5080143;28;20051;-73
2022/04/16 10:39:28;;;;;;;12.02;2.72;;;15.70;61.60;;;;;;5087073;28;20036;-72
2022/04/16 10:42:00;;;;;;;2.08;1.45;;;15.50;60.00;;;;;;5087462;28;20629;-73
2022/04/16 10:44:27;;;;;;;1.77;1.45;;;16.00;60.40;;;;;;5080882;28;20032;-73
2022/04/16 10:46:54;;;;;;;4.65;1.80;;;16.50;59.60;;;;;;5069603;28;20118;-73
2022/04/16 10:49:23;;;;;;;7.00;1.65;;;16.50;58.30;;;;;;5079683;28;20514;-73
2022/04/16 10:51:55;;;;;;;19.40;2.05;;;16.70;58.80;;;;;;5091428;28;20046;-73
2022/04/16 10:54:36;;;;;;;1.05;1.00;;;16.60;59.30;;;;;;5076194;28;20573;-74
2022/04/16 10:57:06;;;;;;;1.85;1.40;;;16.50;57.60;;;;;;5072501;28;20177;-73
2022/04/16 10:59:39;;;;;;;3.65;1.45;;;16.60;58.80;;;;;;5072409;28;20082;-73
2022/04/16 11:02:35;;;;;;;8.77;1.70;;;16.70;56.00;;;;;;5069436;28;20055;-73
2022/04/16 11:05:03;;;;;;;1.77;1.25;;;16.80;57.60;;;;;;5069712;28;20047;-73
2022/04/16 11:07:30;;;;;;;3.33;1.60;;;17.00;57.40;;;;;;5079797;28;20116;-73
2022/04/16 11:09:57;;;;;;;2.42;1.33;;;16.80;54.60;;;;;;5081994;28;20043;-73
2022/04/16 11:12:23;;;;;;;3.03;1.63;;;16.50;52.80;;;;;;5061340;28;20052;-73
2022/04/16 11:14:50;;;;;;;14.70;2.78;;;16.50;56.60;;;;;;5087772;28;20450;-73
2022/04/16 11:17:21;;;;;;;14.98;3.17;;;16.40;58.70;;;;;;5089455;28;20090;-73
2022/04/16 11:20:02;;;;;;;5.33;1.30;;;16.50;58.50;;;;;;5083139;28;20055;-73
2022/04/16 11:22:28;;;;;;;3.60;1.45;;;16.50;58.30;;;;;;5087638;28;20309;-73
2022/04/16 11:24:55;;;;;;;1.85;1.40;;;16.50;57.90;;;;;;5098204;28;20363;-73
2022/04/16 11:34:14;;;;;;;14.80;1.90;;;16.30;61.10;;;;;;5081267;28;20041;-72
2022/04/16 11:36:01;;;;;;;5.85;1.30;;;15.70;53.30;;;;;;5083236;28;20445;-71
2022/04/16 11:38:48;;;;;;;3.30;1.30;;;15.70;55.40;;;;;;5083259;28;20348;-70
2022/04/16 11:41:14;;;;;;;2.22;1.50;;;15.30;53.50;;;;;;5084754;28;20032;-71
2022/04/16 11:43:58;;;;;;;9.52;2.60;;;15.30;54.70;;;;;;5082768;28;20061;-70
2022/04/16 11:46:23;;;;;;;3.92;1.33;;;15.20;55.00;;;;;;5083344;28;20131;-70
2022/04/16 11:48:51;;;;;;;3.17;1.42;;;15.50;56.70;;;;;;5070433;28;20128;-70
2022/04/16 11:51:18;;;;;;;1.63;1.35;;;15.90;56.40;;;;;;5070058;28;20409;-71
2022/04/16 11:53:45;;;;;;;5.07;1.45;;;15.90;55.10;;;;;;5088513;28;20546;-71
2022/04/16 11:56:11;;;;;;;2.45;1.35;;;15.40;54.90;;;;;;5081851;28;20035;-70
2022/04/16 11:58:36;;;;;;;9.45;1.80;;;15.80;56.90;;;;;;5082103;28;20504;-71
2022/04/16 12:01:03;;;;;;;5.43;1.70;;;15.80;56.50;;;;;;5066901;28;20044;-70
2022/04/16 12:03:39;;;;;;;3.38;1.33;;;16.10;56.50;;;;;;5087180;28;20115;-71
2022/04/16 12:06:10;;;;;;;2.63;1.23;;;16.10;51.20;;;;;;5061564;28;20039;-71
2022/04/16 12:08:36;;;;;;;3.95;1.40;;;16.10;53.00;;;;;;5064326;28;20051;-71
2022/04/16 12:11:03;;;;;;;4.50;1.20;;;16.20;53.30;;;;;;5086491;28;20136;-71
2022/04/16 12:13:37;;;;;;;2.42;1.10;;;16.00;52.30;;;;;;5104251;28;20115;-71
2022/04/16 12:16:04;;;;;;;5.57;1.20;;;15.90;52.40;;;;;;5085978;28;20044;-71
2022/04/16 12:18:38;;;;;;;4.20;1.67;;;15.70;52.50;;;;;;5082201;28;20082;-71
2022/04/16 12:21:09;;;;;;;2.72;1.42;;;15.80;55.30;;;;;;5083103;28;20780;-71
2022/04/16 12:23:38;;;;;;;2.30;1.10;;;15.90;54.10;;;;;;5082592;28;20078;-71
2022/04/16 12:26:15;;;;;;;1.60;1.48;;;16.00;54.20;;;;;;5083291;28;20460;-71
2022/04/16 12:28:51;;;;;;;3.53;1.40;;;16.20;55.00;;;;;;5084530;28;20032;-71
2022/04/16 12:31:30;;;;;;;1.60;1.10;;;16.20;53.20;;;;;;5099052;28;20048;-71
2022/04/16 12:33:56;;;;;;;4.55;1.73;;;16.30;52.30;;;;;;5080543;28;20041;-71
2022/04/16 12:36:22;;;;;;;3.25;1.30;;;16.30;53.50;;;;;;5097013;28;20032;-71
2022/04/16 12:38:48;;;;;;;2.97;1.20;;;16.30;53.50;;;;;;5081571;28;20044;-71
2022/04/16 12:41:15;;;;;;;1.30;1.20;;;16.30;53.50;;;;;;5076956;28;20513;-71
2022/04/16 12:43:42;;;;;;;3.33;1.67;;;16.40;55.40;;;;;;5065917;28;20050;-71
2022/04/16 12:46:08;;;;;;;1.75;0.98;;;16.50;54.60;;;;;;5084679;28;20059;-72
2022/04/16 12:48:34;;;;;;;5.30;1.70;;;16.60;53.20;;;;;;5086607;28;20032;-71
2022/04/16 12:51:00;;;;;;;3.13;1.40;;;16.60;54.20;;;;;;5078294;28;20079;-71
2022/04/16 12:53:26;;;;;;;4.75;1.20;;;16.50;53.40;;;;;;5085660;28;20070;-72
2022/04/16 12:55:52;;;;;;;3.88;1.42;;;16.70;53.30;;;;;;5087111;28;20456;-71
2022/04/16 12:58:18;;;;;;;1.70;1.30;;;16.80;53.70;;;;;;5086812;28;20040;-71
2022/04/16 13:00:47;;;;;;;4.70;1.58;;;16.90;54.70;;;;;;5065227;28;20374;-71
2022/04/16 13:03:19;;;;;;;1.60;1.30;;;16.90;54.90;;;;;;5086418;28;20044;-71